Time;durP1;ratioP1;P1;durP2;ratioP2;P2;SDS_P1;SDS_P2;PMS_P1;PMS_P2;Temp;Humidity;BMP_temperature;BMP_pressure;BME280_temperature;BME280_humidity;BME280_pressure;Samples;Min_cycle;Max_cycle;Signal;HPM_P1;HPM_P2
2022/11/03 00:02:12;;;;;;;50.05;17.02;;;;;;;11.15;91.03;99829.55;1728261;82;21032;-79
2022/11/03 00:04:40;;;;;;;45.15;16.30;;;;;;;11.18;90.96;99828.63;1712068;82;21926;-79
2022/11/03 00:07:08;;;;;;;48.78;17.23;;;;;;;11.20;91.08;99832.07;1726377;82;21032;-78
2022/11/03 00:09:35;;;;;;;46.42;17.67;;;;;;;11.22;91.27;99839.00;1711361;83;21000;-79
2022/11/03 00:12:03;;;;;;;48.75;17.00;;;;;;;11.24;90.74;99837.23;1707959;84;21027;-79
2022/11/03 00:14:31;;;;;;;50.88;18.70;;;;;;;11.28;91.05;99838.02;1709947;82;21048;-79
2022/11/03 00:16:58;;;;;;;47.93;16.12;;;;;;;11.31;90.87;99841.43;1707346;84;21093;-79
2022/11/03 00:19:26;;;;;;;48.50;16.90;;;;;;;11.33;90.83;99836.20;1703545;82;21547;-79
2022/11/03 00:21:53;;;;;;;45.60;17.45;;;;;;;11.34;90.83;99841.84;1706817;83;21020;-79
2022/11/03 00:24:20;;;;;;;44.65;18.40;;;;;;;11.35;90.99;99844.84;1706571;82;21036;-78
2022/11/03 00:26:48;;;;;;;41.80;16.25;;;;;;;11.41;91.14;99836.94;1703116;84;21346;-79
2022/11/03 00:29:16;;;;;;;52.08;17.05;;;;;;;11.44;90.98;99845.12;1695433;82;20999;-79
2022/11/03 00:31:44;;;;;;;51.08;16.65;;;;;;;11.48;90.82;99849.39;1719904;82;21039;-79
2022/11/03 00:34:12;;;;;;;43.15;16.30;;;;;;;11.48;90.73;99853.30;1706986;84;21084;-79
2022/11/03 00:36:44;;;;;;;47.43;17.55;;;;;;;11.49;90.78;99849.83;1719893;82;21059;-79
2022/11/03 00:39:12;;;;;;;46.50;16.75;;;;;;;11.49;90.51;99855.89;1704275;84;21033;-79
2022/11/03 00:41:40;;;;;;;41.75;15.83;;;;;;;11.48;90.57;99854.61;1708399;82;20985;-79
2022/11/03 00:44:23;;;;;;;49.45;17.37;;;;;;;11.49;90.37;99857.19;1685118;84;22187;-79
2022/11/03 00:46:50;;;;;;;41.60;16.67;;;;;;;11.48;90.72;99854.61;1705761;82;21055;-78
2022/11/03 00:49:18;;;;;;;43.30;16.42;;;;;;;11.48;90.84;99859.39;1703511;83;21519;-81
2022/11/03 00:52:04;;;;;;;45.38;16.97;;;;;;;11.50;90.83;99860.67;1717951;82;21059;-79
2022/11/03 00:54:51;;;;;;;48.45;17.32;;;;;;;11.50;90.50;99860.23;1701916;84;21044;-79
2022/11/03 00:57:18;;;;;;;45.15;17.15;;;;;;;11.43;90.79;99859.90;1705166;82;21594;-79
2022/11/03 01:00:35;;;;;;;48.35;17.37;;;;;;;11.40;91.27;99862.98;1703671;83;21193;-78
2022/11/03 01:03:21;;;;;;;49.90;18.17;;;;;;;11.35;91.41;99866.53;1704908;84;21040;-78
2022/11/03 01:08:36;;;;;;;45.55;16.77;;;;;;;11.27;91.30;99865.80;1699095;82;21926;-80
2022/11/03 01:13:59;;;;;;;49.55;17.32;;;;;;;11.20;92.53;99868.09;1713032;82;21003;-79
2022/11/03 01:16:28;;;;;;;48.15;16.82;;;;;;;11.13;92.95;99856.04;1703915;82;21611;-79
2022/11/03 01:18:57;;;;;;;53.38;16.45;;;;;;;11.10;92.87;99852.17;1710711;82;21031;-78
2022/11/03 01:21:25;;;;;;;52.88;16.65;;;;;;;11.09;93.01;99857.83;1719067;82;21036;-79
2022/11/03 01:23:52;;;;;;;50.28;17.65;;;;;;;11.05;93.71;99854.00;1702605;82;21135;-80
2022/11/03 01:26:20;;;;;;;51.95;17.75;;;;;;;11.07;93.22;99845.73;1721173;82;21536;-79
2022/11/03 01:28:48;;;;;;;50.25;16.62;;;;;;;11.09;93.04;99847.86;1704573;82;21615;-80
2022/11/03 01:31:20;;;;;;;56.15;17.67;;;;;;;11.11;92.54;99852.16;1716345;82;21135;-79
2022/11/03 01:33:51;;;;;;;59.30;19.10;;;;;;;11.12;93.65;99854.31;1704035;82;21036;-78
2022/11/03 01:36:19;;;;;;;46.35;13.72;;;;;;;11.13;93.95;99850.84;1713648;82;21484;-80
2022/11/03 01:38:47;;;;;;;47.17;16.52;;;;;;;11.13;93.20;99852.98;1704125;82;21035;-78
2022/11/03 01:41:19;;;;;;;51.18;17.12;;;;;;;11.13;93.22;99848.23;1706522;84;21973;-79
2022/11/03 01:44:07;;;;;;;50.52;16.30;;;;;;;11.10;94.08;99850.87;1707439;82;21004;-79
2022/11/03 01:46:49;;;;;;;49.20;16.25;;;;;;;11.11;93.32;99850.00;1715293;82;20997;-78
2022/11/03 01:49:22;;;;;;;46.10;15.13;;;;;;;11.10;93.68;99845.66;1703476;82;21678;-79
2022/11/03 01:51:55;;;;;;;47.30;16.50;;;;;;;11.09;93.30;99847.86;1712670;82;21036;-80
2022/11/03 01:54:25;;;;;;;53.83;17.30;;;;;;;11.10;93.58;99852.17;1709471;82;21083;-78
2022/11/03 01:56:54;;;;;;;47.45;17.27;;;;;;;11.09;93.84;99854.38;1718023;82;21382;-78
2022/11/03 01:59:23;;;;;;;46.88;16.12;;;;;;;11.08;94.33;99853.52;1703279;82;21091;-79
2022/11/03 02:01:51;;;;;;;46.30;15.90;;;;;;;11.09;94.52;99853.92;1719670;82;21067;-79
2022/11/03 02:04:26;;;;;;;50.85;16.87;;;;;;;11.12;94.55;99853.89;1703109;82;21611;-79
2022/11/03 02:07:11;;;;;;;47.67;16.80;;;;;;;11.15;93.90;99853.83;1720759;82;21564;-80
2022/11/03 02:09:39;;;;;;;57.43;17.30;;;;;;;11.14;94.37;99845.61;1678132;82;21016;-79
2022/11/03 02:12:09;;;;;;;46.53;16.37;;;;;;;11.18;94.75;99842.53;1717387;82;21320;-80
2022/11/03 02:14:42;;;;;;;45.55;15.98;;;;;;;11.20;94.67;99838.58;1691412;82;21028;-78
2022/11/03 02:17:13;;;;;;;54.20;17.12;;;;;;;11.23;94.73;99839.39;1708311;82;21707;-80
2022/11/03 02:19:49;;;;;;;51.20;17.57;;;;;;;11.22;94.61;99832.48;1707302;84;21028;-78
2022/11/03 02:22:44;;;;;;;54.58;17.37;;;;;;;11.23;94.49;99830.73;1709272;82;20965;-79
2022/11/03 02:25:49;;;;;;;59.35;17.23;;;;;;;11.23;95.00;99827.69;1704605;82;21032;-79
2022/11/03 02:28:21;;;;;;;45.45;15.78;;;;;;;11.23;94.73;99825.53;1711046;82;21012;-77
2022/11/03 02:31:18;;;;;;;44.33;15.70;;;;;;;11.23;94.32;99828.13;1703433;82;21032;-78
2022/11/03 02:34:15;;;;;;;45.08;16.02;;;;;;;11.21;94.65;99829.91;1719446;82;21056;-78
2022/11/03 02:36:57;;;;;;;46.18;15.93;;;;;;;11.17;94.55;99826.94;1708599;82;22211;-79
2022/11/03 02:39:39;;;;;;;46.92;15.90;;;;;;;11.13;94.42;99828.72;1682361;84;21036;-80
2022/11/03 02:42:10;;;;;;;47.10;17.25;;;;;;;11.12;94.58;99835.67;1703808;82;20988;-79
2022/11/03 02:44:39;;;;;;;38.05;14.98;;;;;;;11.09;94.07;99827.05;1706639;84;20957;-79
2022/11/03 02:47:10;;;;;;;49.08;16.82;;;;;;;11.03;94.14;99829.75;1704517;82;21083;-78
2022/11/03 02:49:49;;;;;;;52.15;17.20;;;;;;;10.99;95.25;99825.47;1717751;82;21004;-78
2022/11/03 02:52:43;;;;;;;48.50;16.52;;;;;;;10.97;94.81;99827.23;1705015;82;22396;-81
2022/11/03 02:55:45;;;;;;;43.30;15.32;;;;;;;10.96;94.49;99818.55;1709543;82;21423;-79
2022/11/03 02:58:38;;;;;;;45.23;15.20;;;;;;;10.94;93.96;99821.20;1706138;82;21214;-79
2022/11/03 03:01:26;;;;;;;42.85;15.30;;;;;;;10.90;95.76;99824.73;1703450;84;21033;-79
2022/11/03 03:03:58;;;;;;;48.98;15.65;;;;;;;10.93;94.61;99830.33;1704728;82;21048;-79
2022/11/03 03:06:31;;;;;;;45.58;15.93;;;;;;;10.90;94.91;99822.13;1702878;84;21520;-78
2022/11/03 03:09:06;;;;;;;41.45;15.38;;;;;;;10.94;95.61;99823.80;1706626;82;21020;-78
2022/11/03 03:11:37;;;;;;;50.67;18.15;;;;;;;10.96;94.36;99823.75;1705288;84;21573;-78
2022/11/03 03:14:13;;;;;;;57.58;24.02;;;;;;;10.98;94.43;99812.03;1715210;82;21043;-78
2022/11/03 03:17:07;;;;;;;56.77;16.90;;;;;;;11.02;94.82;99812.40;1677729;84;21024;-79
2022/11/03 03:20:15;;;;;;;40.63;16.85;;;;;;;11.03;95.50;99819.34;1706339;82;21051;-78
2022/11/03 03:22:53;;;;;;;48.65;15.28;;;;;;;11.06;95.57;99819.27;1697056;84;21022;-79
2022/11/03 03:25:57;;;;;;;49.58;15.78;;;;;;;11.06;95.29;99816.25;1708974;82;21315;-79
2022/11/03 03:28:33;;;;;;;45.63;16.10;;;;;;;11.12;95.29;99822.66;1708581;82;21032;-79
2022/11/03 03:31:05;;;;;;;50.70;16.95;;;;;;;11.11;95.20;99816.17;1714173;82;21993;-79
2022/11/03 03:33:33;;;;;;;46.53;15.53;;;;;;;11.16;95.14;99823.48;1725383;82;21036;-78
2022/11/03 03:36:05;;;;;;;48.58;16.23;;;;;;;11.18;95.04;99823.02;1711671;82;21526;-79
2022/11/03 03:38:38;;;;;;;46.37;17.02;;;;;;;11.20;94.96;99813.44;1713329;82;21044;-78
2022/11/03 03:41:09;;;;;;;43.23;15.73;;;;;;;11.25;95.26;99811.59;1706441;82;21043;-78
2022/11/03 03:43:37;;;;;;;48.58;18.23;;;;;;;11.31;95.08;99814.09;1708467;84;21967;-79
2022/11/03 03:46:09;;;;;;;47.73;16.93;;;;;;;11.34;95.23;99817.97;1705594;82;21575;-79
2022/11/03 03:48:37;;;;;;;49.77;19.50;;;;;;;11.38;94.54;99822.69;1689107;84;21535;-78
2022/11/03 03:51:06;;;;;;;49.13;20.12;;;;;;;11.37;94.64;99810.98;1705819;82;21007;-79
2022/11/03 03:53:33;;;;;;;45.73;18.02;;;;;;;11.41;94.70;99821.77;1697807;83;21066;-78
2022/11/03 03:56:04;;;;;;;54.27;18.70;;;;;;;11.43;94.48;99812.18;1705506;84;21354;-78
2022/11/03 03:58:30;;;;;;;42.27;15.70;;;;;;;11.45;94.78;99811.27;1704798;83;21103;-78
2022/11/03 04:00:58;;;;;;;42.85;15.13;;;;;;;11.46;94.26;99816.02;1705459;84;21083;-78
2022/11/03 04:03:28;;;;;;;41.73;15.53;;;;;;;11.47;94.37;99810.79;1705744;84;21671;-78
2022/11/03 04:05:55;;;;;;;50.28;15.95;;;;;;;11.50;94.42;99808.15;1706160;84;21048;-80
2022/11/03 04:08:23;;;;;;;46.65;14.35;;;;;;;11.51;93.92;99796.83;1705136;83;21059;-78
2022/11/03 04:22:15;;;;;;;42.80;14.78;;;;;;;11.51;93.47;99805.09;1708297;84;21020;-79
2022/11/03 04:24:47;;;;;;;47.60;15.25;;;;;;;11.51;93.47;99809.85;1708329;83;21571;-80
2022/11/03 04:27:23;;;;;;;41.70;15.30;;;;;;;11.48;93.54;99803.83;1707840;84;21078;-79
2022/11/03 04:29:52;;;;;;;47.17;14.47;;;;;;;11.50;93.51;99806.84;1708046;84;21083;-79
2022/11/03 04:32:20;;;;;;;40.95;14.10;;;;;;;11.48;93.15;99813.83;1708947;83;21047;-78
2022/11/03 04:34:47;;;;;;;43.92;14.93;;;;;;;11.46;93.17;99812.11;1708849;83;21012;-78
2022/11/03 04:37:16;;;;;;;43.52;14.68;;;;;;;11.45;93.19;99806.50;1703640;83;21641;-79
2022/11/03 04:39:44;;;;;;;40.92;13.18;;;;;;;11.42;92.83;99818.26;1707629;84;21598;-78
2022/11/03 04:42:20;;;;;;;44.98;15.18;;;;;;;11.43;93.36;99817.39;1707663;83;21063;-79
2022/11/03 04:44:49;;;;;;;46.70;14.85;;;;;;;11.42;93.28;99814.36;1707686;84;21099;-78
2022/11/03 04:47:17;;;;;;;44.30;14.73;;;;;;;11.41;93.34;99816.11;1707677;84;21174;-77
2022/11/03 04:49:47;;;;;;;46.13;14.93;;;;;;;11.40;93.58;99823.94;1707632;84;21099;-79
2022/11/03 04:52:19;;;;;;;39.90;15.18;;;;;;;11.38;92.94;99826.59;1707602;83;21078;-80
2022/11/03 04:54:50;;;;;;;44.27;14.93;;;;;;;11.35;93.06;99829.23;1707362;84;21079;-79
2022/11/03 04:57:17;;;;;;;43.75;14.73;;;;;;;11.31;92.98;99832.32;1679247;84;21123;-78
2022/11/03 04:59:48;;;;;;;48.40;14.65;;;;;;;11.27;93.24;99837.16;1707331;83;21420;-79
2022/11/03 05:02:20;;;;;;;38.00;14.43;;;;;;;11.20;93.72;99832.95;1707463;84;21103;-79
2022/11/03 05:04:47;;;;;;;43.38;13.18;;;;;;;11.15;94.26;99836.91;1707588;84;22220;-79
2022/11/03 05:07:30;;;;;;;39.27;13.88;;;;;;;11.15;93.88;99836.91;1655817;85;21066;-78
2022/11/03 05:09:58;;;;;;;33.83;12.82;;;;;;;11.12;94.07;99844.78;1652331;87;21157;-79
2022/11/03 05:12:28;;;;;;;38.75;13.60;;;;;;;11.10;93.77;99841.77;1652394;86;21091;-79
2022/11/03 05:14:55;;;;;;;43.05;12.93;;;;;;;11.11;94.13;99847.41;1652160;86;21083;-79
2022/11/03 05:17:26;;;;;;;38.50;13.38;;;;;;;11.09;94.40;99853.07;1652294;86;21042;-79
2022/11/03 05:20:01;;;;;;;39.60;14.23;;;;;;;11.10;93.93;99850.87;1654112;86;21095;-78
2022/11/03 05:22:35;;;;;;;38.17;13.90;;;;;;;11.04;94.22;99845.77;1654110;86;21591;-79
2022/11/03 05:25:08;;;;;;;31.97;12.13;;;;;;;11.00;94.58;99846.69;1655219;87;21180;-79
2022/11/03 05:27:36;;;;;;;42.75;13.32;;;;;;;11.01;94.37;99852.33;1647294;87;21084;-80
2022/11/03 05:30:07;;;;;;;28.85;11.12;;;;;;;11.00;94.18;99857.98;1654351;86;21071;-80
2022/11/03 05:32:35;;;;;;;31.87;12.05;;;;;;;10.97;94.73;99857.16;1655202;86;20997;-79
2022/11/03 05:35:03;;;;;;;40.78;12.93;;;;;;;10.93;94.95;99858.49;1654706;86;21047;-78
2022/11/03 05:37:33;;;;;;;36.98;13.65;;;;;;;10.93;94.40;99859.79;1654219;87;21674;-79
2022/11/03 05:40:16;;;;;;;35.88;12.98;;;;;;;10.92;94.69;99867.61;1641880;87;21076;-78
2022/11/03 05:42:46;;;;;;;33.23;11.10;;;;;;;10.88;94.60;99866.82;1732418;82;21055;-78
2022/11/03 05:45:21;;;;;;;38.10;12.37;;;;;;;10.84;94.96;99874.25;1723977;82;21089;-80
2022/11/03 05:47:53;;;;;;;28.45;11.15;;;;;;;10.85;94.17;99871.20;1721658;82;21563;-79
2022/11/03 05:50:24;;;;;;;36.85;11.73;;;;;;;10.79;94.65;99881.24;1676267;84;22239;-79
2022/11/03 05:52:58;;;;;;;41.80;12.23;;;;;;;10.79;94.36;99876.03;1703955;82;21036;-79
2022/11/03 05:55:34;;;;;;;36.20;14.15;;;;;;;10.74;95.61;99882.61;1704911;82;21035;-77
2022/11/03 05:58:28;;;;;;;34.23;12.98;;;;;;;10.73;95.67;99887.83;1705859;82;21032;-78
2022/11/03 06:00:56;;;;;;;34.55;12.18;;;;;;;10.71;95.20;99888.29;1689755;84;21057;-78
2022/11/03 06:03:27;;;;;;;36.03;11.93;;;;;;;10.76;94.73;99883.87;1722476;82;21558;-77
2022/11/03 06:05:57;;;;;;;27.52;11.40;;;;;;;10.72;95.52;99889.98;1686881;84;21061;-78
2022/11/03 06:08:35;;;;;;;29.18;10.80;;;;;;;10.77;95.23;99889.95;1719673;82;21008;-79
2022/11/03 06:11:03;;;;;;;31.90;11.10;;;;;;;10.79;94.69;99892.09;1710709;82;21032;-78
2022/11/03 06:13:37;;;;;;;37.23;12.20;;;;;;;10.75;94.91;99892.56;1716114;82;21885;-78
2022/11/03 06:16:10;;;;;;;;;;;;;;;10.75;95.05;99888.66;1711952;82;21162;-78
2022/11/03 06:18:38;;;;;;;26.50;10.53;;;;;;;10.70;95.92;99892.64;1702141;82;20166;-78
2022/11/03 06:21:13;;;;;;;33.08;11.03;;;;;;;10.70;95.92;99892.64;1713735;82;21041;-78
2022/11/03 06:23:42;;;;;;;36.60;12.23;;;;;;;10.73;95.86;99894.33;1684914;82;21040;-78
2022/11/03 06:26:19;;;;;;;37.78;12.33;;;;;;;10.76;95.78;99899.47;1726311;82;21023;-79
2022/11/03 06:28:48;;;;;;;31.25;11.70;;;;;;;10.77;95.70;99909.02;1705815;82;21048;-78
2022/11/03 06:31:26;;;;;;;34.83;11.25;;;;;;;10.81;95.39;99904.64;1724123;82;21031;-79
2022/11/03 06:33:56;;;;;;;31.48;11.28;;;;;;;10.78;95.60;99908.56;1708841;82;21555;-79
2022/11/03 06:36:35;;;;;;;27.35;11.18;;;;;;;10.87;95.09;99916.26;1710878;82;21035;-78
2022/11/03 06:39:10;;;;;;;31.45;11.57;;;;;;;10.82;95.80;99916.30;1701558;82;21043;-79
2022/11/03 06:41:38;;;;;;;32.35;12.03;;;;;;;10.86;95.78;99914.11;1713076;82;21044;-79
2022/11/03 06:44:25;;;;;;;28.92;11.33;;;;;;;10.90;95.90;99911.00;1705645;82;21035;-79
2022/11/03 06:47:04;;;;;;;30.82;10.53;;;;;;;10.97;95.90;99910.50;1716721;82;21047;-78
2022/11/03 06:49:34;;;;;;;35.35;12.20;;;;;;;11.01;95.77;99909.13;1703475;82;21040;-78
2022/11/03 06:52:30;;;;;;;29.48;12.28;;;;;;;11.07;95.54;99905.12;1716545;82;21071;-78
2022/11/03 06:55:12;;;;;;;39.50;12.73;;;;;;;11.14;95.70;99908.49;1705189;82;21060;-78
2022/11/03 06:57:43;;;;;;;30.77;11.33;;;;;;;11.25;95.08;99907.91;1691140;82;21030;-78
2022/11/03 07:00:22;;;;;;;40.12;12.98;;;;;;;11.30;95.10;99912.61;1707727;82;21067;-76
2022/11/03 07:03:20;;;;;;;30.82;10.50;;;;;;;11.39;94.86;99908.15;1695762;82;21024;-78
2022/11/03 07:05:47;;;;;;;32.88;11.28;;;;;;;11.44;94.54;99907.62;1666123;82;21069;-78
2022/11/03 07:08:38;;;;;;;29.42;10.90;;;;;;;11.48;94.36;99914.49;1683312;82;21055;-78
2022/11/03 07:11:19;;;;;;;36.50;12.30;;;;;;;11.52;94.28;99914.44;1701154;82;21084;-79
2022/11/03 07:13:50;;;;;;;28.25;11.12;;;;;;;11.53;93.82;99910.09;1688035;82;21484;-78
2022/11/03 07:16:27;;;;;;;24.57;10.60;;;;;;;11.59;93.81;99912.59;1698721;82;21035;-78
2022/11/03 07:18:59;;;;;;;30.45;12.37;;;;;;;11.65;93.11;99912.94;1692954;82;21060;-78
2022/11/03 07:21:53;;;;;;;31.70;11.57;;;;;;;11.71;93.33;99911.08;1667237;84;22320;-77
2022/11/03 07:24:28;;;;;;;27.58;10.98;;;;;;;11.79;92.97;99914.02;1658931;85;21005;-79
2022/11/03 07:27:23;;;;;;;29.10;11.12;;;;;;;11.84;92.46;99909.59;1677014;84;21036;-77
2022/11/03 07:29:54;;;;;;;27.07;11.08;;;;;;;11.87;92.40;99906.92;1656990;84;21588;-78
2022/11/03 07:32:31;;;;;;;31.07;12.13;;;;;;;11.89;92.34;99902.58;1671271;84;21090;-77
2022/11/03 07:35:13;;;;;;;26.77;11.45;;;;;;;11.89;92.29;99904.73;1666346;84;21059;-77
2022/11/03 07:37:41;;;;;;;29.72;10.63;;;;;;;11.92;91.94;99898.17;1668536;84;21017;-78
2022/11/03 07:40:15;;;;;;;25.00;9.15;;;;;;;11.91;92.00;99902.95;1656126;84;21071;-79
2022/11/03 07:42:43;;;;;;;30.20;10.95;;;;;;;11.93;91.65;99893.36;1669821;84;21135;-79
2022/11/03 07:45:38;;;;;;;23.65;10.03;;;;;;;11.84;91.20;99897.88;1663561;84;21091;-77
2022/11/03 07:48:21;;;;;;;28.40;10.00;;;;;;;11.83;91.73;99893.53;1668905;84;20995;-78
2022/11/03 07:50:51;;;;;;;29.23;9.73;;;;;;;11.87;91.69;99887.37;1661459;84;21068;-78
2022/11/03 07:53:36;;;;;;;23.70;10.48;;;;;;;11.86;91.31;99885.23;1672394;84;21027;-78
2022/11/03 07:56:20;;;;;;;26.23;9.58;;;;;;;11.95;91.22;99888.13;1665648;84;21127;-78
2022/11/03 07:59:14;;;;;;;25.45;10.60;;;;;;;11.98;91.15;99884.60;1661071;84;21063;-79
2022/11/03 08:01:50;;;;;;;31.95;10.93;;;;;;;11.95;90.67;99885.52;1665495;85;21056;-78
2022/11/03 08:04:25;;;;;;;29.72;11.05;;;;;;;11.93;90.95;99886.84;1666541;84;21071;-78
2022/11/03 08:06:53;;;;;;;28.62;11.45;;;;;;;11.98;90.91;99880.27;1663205;84;21051;-79
2022/11/03 08:09:21;;;;;;;30.45;9.93;;;;;;;11.98;90.22;99876.78;1670081;84;20971;-78
2022/11/03 08:11:49;;;;;;;20.10;8.33;;;;;;;11.93;89.56;99879.48;1662748;84;21090;-78
2022/11/03 08:14:17;;;;;;;23.45;8.93;;;;;;;11.98;90.41;99881.57;1661046;84;21603;-79
2022/11/03 08:16:45;;;;;;;21.40;9.68;;;;;;;11.96;90.26;99875.95;1661083;84;21150;-79
2022/11/03 08:19:13;;;;;;;23.77;9.08;;;;;;;11.96;90.16;99880.74;1678583;82;21028;-79
2022/11/03 08:21:40;;;;;;;22.50;10.10;;;;;;;12.00;90.13;99882.41;1699608;82;21857;-78
2022/11/03 08:24:08;;;;;;;24.43;9.45;;;;;;;12.02;90.28;99878.02;1701435;82;21035;-77
2022/11/03 08:26:36;;;;;;;18.50;8.55;;;;;;;12.03;90.23;99874.52;1701583;82;20999;-79
2022/11/03 08:29:04;;;;;;;20.92;8.05;;;;;;;12.09;90.21;99874.39;1692955;82;21028;-77
2022/11/03 08:31:32;;;;;;;18.30;8.00;;;;;;;12.07;89.54;99876.17;1677372;83;21082;-79
2022/11/03 08:34:00;;;;;;;22.30;8.53;;;;;;;12.06;89.34;99874.92;1692819;84;21084;-76
2022/11/03 08:36:28;;;;;;;20.97;8.53;;;;;;;12.05;89.11;99878.40;1700266;82;21023;-78
2022/11/03 08:38:55;;;;;;;23.90;7.75;;;;;;;12.04;89.56;99874.09;1681463;84;21035;-79
2022/11/03 08:41:23;;;;;;;24.30;8.73;;;;;;;12.08;89.69;99876.60;1694734;82;21052;-78
2022/11/03 08:43:51;;;;;;;22.62;8.08;;;;;;;12.08;88.82;99879.66;1694017;82;21579;-77
2022/11/03 08:46:18;;;;;;;18.00;7.87;;;;;;;12.18;89.30;99871.23;1683295;81;21566;-80
2022/11/03 08:48:46;;;;;;;21.33;7.95;;;;;;;12.15;89.03;99873.42;1679273;82;21095;-80
2022/11/03 08:51:15;;;;;;;20.88;9.45;;;;;;;12.17;89.17;99872.09;1696147;82;21027;-80
2022/11/03 08:53:43;;;;;;;15.68;7.70;;;;;;;12.28;89.16;99876.67;1682618;82;21094;-77
2022/11/03 08:56:11;;;;;;;18.75;8.13;;;;;;;12.25;88.82;99876.72;1684270;82;20980;-79
2022/11/03 08:58:39;;;;;;;17.50;7.90;;;;;;;12.28;88.91;99877.97;1685467;82;21704;-78
2022/11/03 09:01:07;;;;;;;16.95;7.60;;;;;;;12.29;88.67;99870.55;1688996;82;21035;-77
2022/11/03 09:03:34;;;;;;;23.60;10.05;;;;;;;12.34;88.42;99873.94;1673756;83;21016;-80
2022/11/03 09:06:02;;;;;;;20.25;8.98;;;;;;;12.41;88.63;99875.52;1685215;82;21004;-76
2022/11/03 09:08:30;;;;;;;22.90;9.95;;;;;;;12.46;87.49;99871.08;1697834;82;21000;-77
2022/11/03 09:10:58;;;;;;;29.45;10.45;;;;;;;12.52;88.11;99872.25;1682606;84;21070;-79
2022/11/03 09:13:26;;;;;;;31.90;10.28;;;;;;;12.53;87.55;99872.69;1685532;82;21042;-77
2022/11/03 09:15:53;;;;;;;29.10;9.63;;;;;;;12.56;87.18;99870.91;1685308;84;21024;-78
2022/11/03 09:18:21;;;;;;;30.52;9.70;;;;;;;12.52;87.19;99869.65;1687015;82;21098;-80
2022/11/03 09:20:49;;;;;;;25.37;8.88;;;;;;;12.59;87.48;99872.13;1678815;82;21058;-78
2022/11/03 09:23:16;;;;;;;22.80;9.88;;;;;;;12.63;86.62;99868.10;1692936;82;22158;-79
2022/11/03 09:25:44;;;;;;;22.07;9.55;;;;;;;12.65;86.75;99866.77;1677479;82;21079;-78
2022/11/03 09:28:12;;;;;;;19.45;8.58;;;;;;;12.70;86.60;99871.46;1693564;82;21047;-77
2022/11/03 09:30:40;;;;;;;22.22;9.20;;;;;;;12.76;86.85;99858.28;1690820;82;21374;-78
2022/11/03 09:33:07;;;;;;;29.87;10.48;;;;;;;12.78;87.01;99861.72;1686837;82;21604;-79
2022/11/03 09:35:35;;;;;;;24.18;10.72;;;;;;;12.80;86.69;99857.32;1695173;82;21020;-79
2022/11/03 09:38:03;;;;;;;28.38;10.63;;;;;;;12.87;86.71;99858.91;1681663;82;21063;-78
2022/11/03 09:40:31;;;;;;;32.03;11.55;;;;;;;12.99;86.77;99855.59;1672035;82;21110;-77
2022/11/03 09:42:59;;;;;;;26.17;11.00;;;;;;;13.10;86.48;99853.61;1679638;82;21003;-78
2022/11/03 09:45:26;;;;;;;30.12;11.83;;;;;;;13.16;85.78;99861.29;1686692;82;21110;-77
2022/11/03 09:47:55;;;;;;;27.80;11.08;;;;;;;13.26;85.46;99862.78;1685100;84;21603;-78
2022/11/03 09:50:23;;;;;;;32.05;11.73;;;;;;;13.27;85.59;99850.58;1689014;82;21634;-78
2022/11/03 09:52:53;;;;;;;33.98;11.33;;;;;;;13.27;85.29;99855.80;1685357;84;21038;-78
2022/11/03 09:55:26;;;;;;;34.92;12.30;;;;;;;13.32;84.67;99858.75;1683849;82;21547;-78
2022/11/03 09:58:00;;;;;;;29.98;12.33;;;;;;;13.39;84.11;99850.77;1691796;83;21021;-79
2022/11/03 10:00:28;;;;;;;29.65;12.65;;;;;;;13.36;84.58;99855.63;1689211;82;21063;-78
2022/11/03 10:02:55;;;;;;;35.75;14.33;;;;;;;13.35;84.45;99845.20;1683699;82;20996;-77
2022/11/03 10:05:26;;;;;;;36.00;13.55;;;;;;;13.38;84.64;99847.30;1695392;82;21365;-78
2022/11/03 10:08:04;;;;;;;48.42;17.55;;;;;;;13.45;85.02;99850.61;1688238;82;21338;-78
2022/11/03 10:10:34;;;;;;;47.93;18.40;;;;;;;13.48;84.85;99842.71;1690093;82;21616;-78
2022/11/03 10:13:01;;;;;;;34.00;14.55;;;;;;;13.54;84.81;99842.55;1688309;82;20992;-78
2022/11/03 10:15:29;;;;;;;38.17;13.83;;;;;;;13.59;84.34;99840.70;1694065;82;21489;-78
2022/11/03 10:17:56;;;;;;;41.02;16.23;;;;;;;13.59;84.10;99839.81;1690300;82;21008;-78
2022/11/03 10:20:24;;;;;;;34.83;14.78;;;;;;;13.63;83.97;99836.26;1687564;82;21008;-79
2022/11/03 10:22:54;;;;;;;48.75;18.90;;;;;;;13.67;84.14;99829.59;1687591;82;21991;-78
2022/11/03 10:25:39;;;;;;;63.42;21.95;;;;;;;13.70;83.51;99832.57;1685843;82;21345;-78
2022/11/03 10:28:23;;;;;;;46.53;18.35;;;;;;;13.71;83.83;99826.46;1687108;82;21059;-79
2022/11/03 10:31:08;;;;;;;48.05;17.05;;;;;;;13.75;83.62;99825.91;1695132;82;21027;-77
2022/11/03 10:33:39;;;;;;;37.58;15.15;;;;;;;13.85;83.36;99814.33;1679554;82;21634;-79
2022/11/03 10:36:24;;;;;;;38.42;14.80;;;;;;;13.95;83.41;99821.45;1695611;82;20980;-79
2022/11/03 10:38:52;;;;;;;32.05;14.87;;;;;;;14.02;82.40;99815.16;1684411;82;21082;-78
2022/11/03 10:41:27;;;;;;;37.95;15.25;;;;;;;14.06;82.10;99812.41;1691482;82;21360;-79
2022/11/03 10:44:04;;;;;;;34.95;14.73;;;;;;;14.09;81.90;99809.73;1693506;82;21063;-78
2022/11/03 10:46:32;;;;;;;37.65;14.87;;;;;;;14.05;80.93;99802.87;1697044;81;21749;-79
2022/11/03 10:49:11;;;;;;;37.73;14.98;;;;;;;14.13;81.54;99812.66;1691003;82;21067;-79
2022/11/03 10:51:41;;;;;;;33.48;15.35;;;;;;;14.25;82.04;99807.53;1690782;82;21075;-79
2022/11/03 10:54:15;;;;;;;33.83;14.45;;;;;;;14.37;80.81;99797.63;1685021;82;21020;-79
2022/11/03 10:56:45;;;;;;;37.20;14.20;;;;;;;14.51;81.22;99797.61;1698658;82;21040;-79
2022/11/03 10:59:17;;;;;;;35.28;13.80;;;;;;;14.63;79.81;99790.33;1682715;82;21887;-79
2022/11/03 11:01:45;;;;;;;33.98;14.85;;;;;;;14.74;79.72;99786.06;1688627;84;21000;-79
2022/11/03 11:04:18;;;;;;;36.65;14.33;;;;;;;14.80;81.02;99787.17;1695706;82;21021;-80
2022/11/03 11:06:46;;;;;;;35.00;13.63;;;;;;;14.86;79.94;99788.28;1693850;84;21134;-78
2022/11/03 11:09:24;;;;;;;27.05;12.98;;;;;;;14.87;79.45;99786.94;1700570;82;21004;-79
2022/11/03 11:12:15;;;;;;;36.03;13.85;;;;;;;14.88;78.56;99777.31;1676931;84;21095;-79
2022/11/03 11:14:58;;;;;;;29.90;13.13;;;;;;;14.98;77.87;99777.88;1688188;82;21000;-78
2022/11/03 11:17:39;;;;;;;32.80;13.48;;;;;;;15.00;77.82;99778.69;1690319;84;21043;-80
2022/11/03 11:20:40;;;;;;;36.25;15.65;;;;;;;15.02;78.00;99775.56;1680265;82;21079;-78
2022/11/03 11:23:30;;;;;;;33.30;14.45;;;;;;;15.07;77.32;99757.95;1696113;82;21551;-80
2022/11/03 11:26:28;;;;;;;37.83;15.08;;;;;;;15.19;75.96;99754.08;1694416;82;21003;-79
2022/11/03 11:29:14;;;;;;;31.40;13.03;;;;;;;15.27;77.08;99755.52;1694906;82;21158;-78
2022/11/03 11:31:43;;;;;;;37.13;15.35;;;;;;;15.27;75.37;99752.89;1687015;82;21031;-78
2022/11/03 11:34:20;;;;;;;32.73;14.15;;;;;;;15.24;74.49;99743.84;1676519;82;21412;-78
2022/11/03 11:36:56;;;;;;;28.50;13.93;;;;;;;15.24;75.96;99741.66;1696025;82;21028;-79
2022/11/03 11:39:34;;;;;;;35.13;14.93;;;;;;;15.21;74.96;99745.25;1683352;82;21043;-79
2022/11/03 11:42:13;;;;;;;29.70;13.25;;;;;;;15.30;76.79;99724.45;1685047;82;21055;-79
2022/11/03 11:44:53;;;;;;;34.00;13.62;;;;;;;15.40;75.09;99724.95;1692873;82;21047;-79
2022/11/03 11:47:32;;;;;;;27.45;12.80;;;;;;;15.47;76.12;99722.54;1699630;82;21091;-80
2022/11/03 11:50:11;;;;;;;26.93;11.70;;;;;;;15.47;74.17;99716.84;1697812;82;20996;-77
2022/11/03 11:53:01;;;;;;;35.60;13.62;;;;;;;15.57;74.19;99712.59;1700550;82;21111;-78
2022/11/03 11:55:56;;;;;;;23.70;11.33;;;;;;;15.59;74.16;99717.32;1691526;82;22156;-79
2022/11/03 11:58:35;;;;;;;26.80;12.35;;;;;;;15.69;74.31;99713.45;1692501;84;21047;-79
2022/11/03 12:01:20;;;;;;;25.55;10.43;;;;;;;15.70;74.05;99712.09;1697117;82;22014;-79
2022/11/03 12:03:51;;;;;;;27.80;11.73;;;;;;;15.78;73.96;99701.83;1688800;82;22554;-77
2022/11/03 12:06:34;;;;;;;23.20;11.28;;;;;;;15.80;72.49;99703.47;1695351;82;21015;-79
2022/11/03 12:09:17;;;;;;;34.40;15.38;;;;;;;15.82;73.00;99703.42;1700257;82;21040;-78